Little Fort, Canada
Current Conditions -  °F | °C
As of 10:00 PM on Wednesday 22 Oct 2014 (Local Time) from CYKA Reporting Station
Overcast Overcast  
Wind Chill: 11°   Ceiling: 8200
Heat Index: 11°   Visibility: 30mi
Dew Point:   Wind: 12mph
Humidity: 82%   Direction: 90°E
Pressure: 29.51"   Gusts: NA
Location:  51.43°N, 120.2°W
Report Text: CYKA 230500Z 09010KT 30SM SCT060 OVC082 11/08 A2951 RMK SC3AC5 SLP998 DENSITY ALT 1300FT
Loading
Personal Weather Stations






























Interactive Weather Map
Tropical Storm Tracking
New forecast layout! Learn more

10-Day Weather Forecast

Advertisements
Track Severe Weather on mobile